| time (UTC) | temp C | wind direction | speed KPH | gust KPH | rain 1hr cm | rain 24hr cm | rain mn cm | humidity % | barometer mb |
| 20260510211027 | 11 | 136 | 1.6 | 3.2 | 0.00 | 1.14 | 1.14 | 95 | 1014.6 |
| 20260510210531 | 11 | 291 | 0.0 | 0.0 | 0.00 | 1.14 | 1.14 | 95 | 1014.5 |
| 20260510210108 | 11 | 291 | 0.0 | 0.0 | 0.00 | 1.14 | 1.14 | 95 | 1014.5 |
| 20260510205526 | 11 | 291 | 0.0 | 0.0 | 0.00 | 1.14 | 1.14 | 94 | 1014.5 |
| 20260510205042 | 11 | 291 | 0.0 | 0.0 | 0.00 | 1.14 | 1.14 | 94 | 1014.4 |
| 20260510204542 | 11 | 291 | 0.0 | 0.0 | 0.00 | 1.14 | 1.14 | 94 | 1014.4 |
| 20260510204042 | 11 | 291 | 0.0 | 0.0 | 0.00 | 1.14 | 1.14 | 94 | 1014.4 |
| 20260510203546 | 11 | 291 | 0.0 | 0.0 | 0.00 | 1.14 | 1.14 | 94 | 1014.4 |
| 20260510203025 | 11 | 291 | 0.0 | 0.0 | 0.00 | 1.14 | 1.14 | 95 | 1014.4 |
| 20260510202536 | 11 | 291 | 0.0 | 0.0 | 0.00 | 1.14 | 1.14 | 94 | 1014.2 |
| 20260510202104 | 11 | 291 | 0.0 | 0.0 | 0.00 | 1.14 | 1.14 | 94 | 1014.2 |
| 20260510201537 | 11 | 291 | 0.0 | 0.0 | 0.00 | 1.14 | 1.14 | 94 | 1014.2 |
| 20260510201020 | 11 | 291 | 0.0 | 0.0 | 0.00 | 1.14 | 1.14 | 94 | 1014.0 |
| 20260510200543 | 11 | 291 | 0.0 | 6.4 | 0.00 | 1.14 | 1.14 | 94 | 1014.0 |
| 20260510200106 | 11 | 291 | 3.2 | 6.4 | 0.00 | 1.14 | 1.14 | 94 | 1014.0 |
| 20260510195546 | 11 | 284 | 3.2 | 6.4 | 0.00 | 1.14 | 1.14 | 93 | 1014.0 |
| 20260510195037 | 11 | 222 | 0.0 | 3.2 | 0.00 | 1.14 | 1.14 | 93 | 1013.8 |
| 20260510194545 | 11 | 226 | 0.0 | 4.8 | 0.00 | 1.14 | 1.14 | 93 | 1013.8 |
| 20260510194023 | 11 | 171 | 1.6 | 6.4 | 0.00 | 1.14 | 1.14 | 93 | 1013.7 |
| 20260510193608 | 11 | 162 | 0.0 | 6.4 | 0.00 | 1.14 | 1.14 | 93 | 1013.7 |
| 20260510193029 | 11 | 160 | 1.6 | 4.8 | 0.00 | 1.14 | 1.14 | 93 | 1013.5 |
| 20260510192540 | 11 | 165 | 1.6 | 4.8 | 0.00 | 1.14 | 1.14 | 92 | 1014.4 |
| 20260510192045 | 11 | 212 | 0.0 | 1.6 | 0.00 | 1.14 | 1.14 | 92 | 1014.4 |
| 20260510191527 | 11 | 212 | 0.0 | 1.6 | 0.00 | 1.14 | 1.14 | 92 | 1014.3 |
| 20260510191022 | 11 | 153 | 0.0 | 1.6 | 0.00 | 1.14 | 1.14 | 92 | 1014.3 |
| 20260510190534 | 11 | 192 | 0.0 | 0.0 | 0.00 | 1.14 | 1.14 | 91 | 1014.3 |
| 20260510190045 | 12 | 226 | 0.0 | 1.6 | 0.00 | 1.14 | 1.14 | 91 | 1014.3 |
| 20260510185532 | 12 | 246 | 0.0 | 1.6 | 0.00 | 1.14 | 1.14 | 91 | 1014.3 |
| 20260510185041 | 12 | 206 | 0.0 | 0.0 | 0.00 | 1.14 | 1.14 | 91 | 1014.2 |
| 20260510184544 | 12 | 167 | 0.0 | 6.4 | 0.00 | 1.14 | 1.14 | 91 | 1014.1 |
| 20260510184022 | 12 | 236 | 0.0 | 6.4 | 0.00 | 1.14 | 1.14 | 90 | 1014.1 |
| 20260510183533 | 12 | 212 | 0.0 | 6.4 | 0.00 | 1.14 | 1.14 | 90 | 1014.1 |
| 20260510183046 | 12 | 259 | 0.0 | 6.4 | 0.00 | 1.14 | 1.14 | 90 | 1014.1 |
| 20260510182546 | 12 | 206 | 0.0 | 8.0 | 0.00 | 1.14 | 1.14 | 90 | 1014.2 |
| 20260510182020 | 12 | 233 | 1.6 | 9.7 | 0.03 | 1.14 | 1.14 | 89 | 1014.2 |
| 20260510181538 | 12 | 191 | 6.4 | 11.3 | 0.03 | 1.14 | 1.14 | 89 | 1014.1 |
| 20260510180546 | 12 | 219 | 1.6 | 12.9 | 0.05 | 1.14 | 1.14 | 91 | 1014.0 |
| 20260510180108 | 12 | 251 | 6.4 | 12.9 | 0.05 | 1.14 | 1.14 | 91 | 1013.9 |
| 20260510175527 | 12 | 215 | 9.7 | 12.9 | 0.05 | 1.14 | 1.14 | 91 | 1013.8 |
| 20260510175033 | 11 | 227 | 8.0 | 12.9 | 0.05 | 1.14 | 1.14 | 91 | 1013.8 |
| 20260510174528 | 11 | 260 | 6.4 | 12.9 | 0.05 | 1.14 | 1.14 | 92 | 1013.6 |
| 20260510174029 | 11 | 273 | 8.0 | 14.5 | 0.05 | 1.14 | 1.14 | 93 | 1013.6 |
| 20260510173546 | 11 | 250 | 8.0 | 16.1 | 0.05 | 1.14 | 1.14 | 92 | 1013.7 |
| 20260510173031 | 11 | 218 | 11.3 | 17.7 | 0.05 | 1.14 | 1.14 | 93 | 1013.9 |
| 20260510172546 | 11 | 236 | 4.8 | 19.3 | 0.05 | 1.14 | 1.14 | 94 | 1013.9 |
| 20260510172101 | 11 | 280 | 9.7 | 19.3 | 0.05 | 1.12 | 1.12 | 95 | 1014.1 |
| 20260510171523 | 11 | 246 | 14.5 | 20.9 | 0.05 | 1.12 | 1.12 | 96 | 1014.1 |
| 20260510171044 | 11 | 217 | 14.5 | 22.5 | 0.03 | 1.09 | 1.09 | 97 | 1014.2 |
| 20260510170531 | 11 | 256 | 16.1 | 22.5 | 0.05 | 1.09 | 1.09 | 97 | 1014.1 |
| 20260510170046 | 11 | 293 | 11.3 | 16.1 | 0.05 | 1.09 | 1.09 | 97 | 1014.0 |
| 20260510165544 | 11 | 262 | 8.0 | 17.7 | 0.08 | 1.09 | 1.09 | 97 | 1013.9 |
| 20260510165023 | 11 | 262 | 9.7 | 17.7 | 0.10 | 1.09 | 1.09 | 97 | 1013.9 |
| 20260510164551 | 11 | 236 | 11.3 | 19.3 | 0.15 | 1.09 | 1.09 | 97 | 1013.9 |
| 20260510164105 | 11 | 228 | 9.7 | 19.3 | 0.15 | 1.09 | 1.09 | 96 | 1014.0 |
| 20260510163546 | 11 | 236 | 11.3 | 17.7 | 0.18 | 1.09 | 1.09 | 96 | 1013.9 |
| 20260510163102 | 11 | 256 | 8.0 | 17.7 | 0.20 | 1.09 | 1.09 | 96 | 1013.9 |
| 20260510162546 | 11 | 246 | 9.7 | 17.7 | 0.23 | 1.09 | 1.09 | 96 | 1013.9 |
| 20260510162032 | 11 | 240 | 8.0 | 20.9 | 0.33 | 1.12 | 1.09 | 96 | 1013.8 |
| 20260510161608 | 11 | 245 | 11.3 | 20.9 | 0.38 | 1.12 | 1.09 | 96 | 1013.9 |
| 20260510161024 | 11 | 272 | 16.1 | 24.1 | 0.38 | 1.12 | 1.09 | 96 | 1013.8 |
| 20260510160535 | 11 | 256 | 14.5 | 24.1 | 0.36 | 1.09 | 1.07 | 96 | 1013.7 |
| 20260510160052 | 11 | 284 | 12.9 | 19.3 | 0.36 | 1.09 | 1.07 | 95 | 1013.6 |
| 20260510155543 | 11 | 258 | 11.3 | 22.5 | 0.33 | 1.07 | 1.02 | 95 | 1013.6 |
| 20260510154533 | 12 | 294 | 12.9 | 17.7 | 0.25 | 0.99 | 0.97 | 94 | 1013.6 |
| 20260510154045 | 12 | 278 | 11.3 | 17.7 | 0.23 | 0.97 | 0.91 | 93 | 1013.3 |
| 20260510153533 | 12 | 291 | 14.5 | 19.3 | 0.20 | 0.94 | 0.89 | 92 | 1013.5 |
| 20260510153042 | 12 | 283 | 16.1 | 20.9 | 0.20 | 0.94 | 0.89 | 91 | 1013.4 |
| 20260510152540 | 12 | 288 | 12.9 | 22.5 | 0.15 | 0.89 | 0.84 | 89 | 1013.3 |
| 20260510152045 | 13 | 278 | 16.1 | 22.5 | 0.05 | 0.79 | 0.76 | 88 | 1013.2 |
| 20260510151546 | 13 | 281 | 9.7 | 16.1 | 0.03 | 0.76 | 0.71 | 84 | 1013.1 |
| 20260510151023 | 13 | 268 | 11.3 | 16.1 | 0.00 | 0.74 | 0.71 | 83 | 1013.0 |
| 20260510150521 | 14 | 288 | 11.3 | 16.1 | 0.00 | 0.74 | 0.71 | 82 | 1013.1 |
| 20260510150050 | 13 | 266 | 9.7 | 17.7 | 0.00 | 0.74 | 0.71 | 82 | 1013.1 |
| 20260510145544 | 13 | 269 | 12.9 | 19.3 | 0.00 | 0.74 | 0.71 | 81 | 1013.2 |
| 20260510145021 | 13 | 271 | 14.5 | 20.9 | 0.00 | 0.74 | 0.71 | 80 | 1013.2 |
| 20260510144537 | 14 | 276 | 12.9 | 20.9 | 0.00 | 0.74 | 0.71 | 82 | 1013.3 |
| 20260510144024 | 14 | 280 | 12.9 | 19.3 | 0.03 | 0.74 | 0.71 | 82 | 1013.4 |
| 20260510143530 | 14 | 256 | 12.9 | 17.7 | 0.03 | 0.74 | 0.71 | 84 | 1013.4 |
| 20260510143056 | 13 | 247 | 11.3 | 19.3 | 0.05 | 0.74 | 0.71 | 84 | 1013.2 |
| 20260510142524 | 13 | 280 | 11.3 | 22.5 | 0.05 | 0.74 | 0.71 | 84 | 1013.4 |
| 20260510142023 | 13 | 239 | 16.1 | 19.3 | 0.05 | 0.89 | 0.71 | 85 | 1013.5 |
| 20260510141535 | 13 | 278 | 12.9 | 24.1 | 0.05 | 0.89 | 0.71 | 90 | 1013.6 |
| 20260510141034 | 12 | 250 | 16.1 | 29.0 | 0.08 | 0.89 | 0.71 | 90 | 1013.8 |
| 20260510140531 | 12 | 241 | 14.5 | 29.0 | 0.10 | 0.89 | 0.71 | 90 | 1014.0 |
| 20260510140101 | 12 | 266 | 12.9 | 22.5 | 0.10 | 0.89 | 0.71 | 92 | 1014.2 |
| 20260510135543 | 12 | 266 | 14.5 | 22.5 | 0.10 | 0.89 | 0.71 | 92 | 1014.1 |
| 20260510135041 | 12 | 261 | 11.3 | 20.9 | 0.10 | 0.89 | 0.71 | 94 | 1014.0 |
| 20260510134550 | 12 | 274 | 12.9 | 25.7 | 0.13 | 0.89 | 0.71 | 93 | 1013.9 |
| 20260510134038 | 11 | 273 | 16.1 | 25.7 | 0.15 | 0.89 | 0.69 | 93 | 1014.1 |
| 20260510133542 | 11 | 264 | 19.3 | 24.1 | 0.23 | 0.89 | 0.69 | 92 | 1014.1 |
| 20260510133107 | 12 | 246 | 16.1 | 20.9 | 0.25 | 0.86 | 0.66 | 93 | 1014.0 |
| 20260510132530 | 11 | 222 | 17.7 | 27.4 | 0.25 | 0.86 | 0.66 | 92 | 1013.9 |
| 20260510132030 | 11 | 235 | 20.9 | 29.0 | 0.25 | 0.86 | 0.66 | 92 | 1013.9 |
| 20260510131607 | 11 | 250 | 22.5 | 32.2 | 0.25 | 0.86 | 0.66 | 92 | 1013.9 |
| 20260510131028 | 11 | 263 | 19.3 | 32.2 | 0.23 | 0.81 | 0.61 | 91 | 1013.9 |
| 20260510130605 | 11 | 249 | 24.1 | 27.4 | 0.20 | 0.79 | 0.61 | 92 | 1013.8 |
| 20260510130108 | 11 | 264 | 19.3 | 30.6 | 0.20 | 0.79 | 0.61 | 93 | 1013.7 |
| 20260510125623 | 11 | 247 | 17.7 | 30.6 | 0.20 | 0.79 | 0.61 | 93 | 1013.5 |
| 20260510125549 | 11 | 247 | 17.7 | 30.6 | 0.20 | 0.79 | 0.61 | 93 | 1013.5 |
| 20260510125040 | 11 | 260 | 16.1 | 22.5 | 0.20 | 0.79 | 0.61 | 93 | 1013.5 |
| 20260510124540 | 11 | 281 | 14.5 | 22.5 | 0.18 | 0.79 | 0.58 | 91 | 1013.5 |
| 20260510124027 | 11 | 269 | 19.3 | 29.0 | 0.15 | 0.74 | 0.53 | 89 | 1013.6 |
| 20260510123544 | 12 | 274 | 16.1 | 35.4 | 0.05 | 0.64 | 0.43 | 85 | 1013.5 |
| 20260510123048 | 14 | 288 | 29.0 | 35.4 | 0.05 | 0.61 | 0.41 | 83 | 1013.6 |
| 20260510122554 | 14 | 165 | 14.5 | 22.5 | 0.05 | 0.61 | 0.41 | 86 | 1013.0 |
| 20260510122041 | 14 | 233 | 8.0 | 22.5 | 0.05 | 0.61 | 0.41 | 86 | 1012.9 |
| 20260510121528 | 13 | 98 | 11.3 | 22.5 | 0.10 | 0.61 | 0.41 | 87 | 1013.0 |
| 20260510121039 | 13 | 179 | 11.3 | 22.5 | 0.13 | 0.61 | 0.41 | 89 | 1013.1 |
| 20260510120531 | 13 | 214 | 9.7 | 22.5 | 0.13 | 0.61 | 0.41 | 90 | 1013.2 |
| 20260510120056 | 13 | 226 | 8.0 | 20.9 | 0.15 | 0.61 | 0.41 | 92 | 1013.4 |
| 20260510115529 | 12 | 224 | 12.9 | 20.9 | 0.15 | 0.61 | 0.41 | 90 | 1013.5 |
| 20260510115038 | 12 | 280 | 14.5 | 24.1 | 0.15 | 0.61 | 0.41 | 90 | 1013.5 |
| 20260510114545 | 12 | 238 | 14.5 | 24.1 | 0.15 | 0.61 | 0.41 | 89 | 1013.6 |
| 20260510114043 | 12 | 248 | 12.9 | 20.9 | 0.13 | 0.58 | 0.38 | 89 | 1013.7 |
| 20260510113537 | 13 | 231 | 4.8 | 20.9 | 0.15 | 0.58 | 0.38 | 89 | 1013.7 |
| 20260510113041 | 13 | 243 | 11.3 | 12.9 | 0.13 | 0.56 | 0.36 | 90 | 1013.8 |
| 20260510112522 | 13 | 245 | 8.0 | 19.3 | 0.13 | 0.56 | 0.36 | 89 | 1013.8 |
| 20260510112023 | 13 | 253 | 12.9 | 19.3 | 0.10 | 0.53 | 0.33 | 87 | 1013.8 |
| 20260510111531 | 13 | 238 | 11.3 | 19.3 | 0.05 | 0.51 | 0.30 | 86 | 1013.9 |
| 20260510111038 | 13 | 224 | 12.9 | 22.5 | 0.05 | 0.48 | 0.28 | 86 | 1013.8 |
| 20260510110540 | 13 | 205 | 12.9 | 22.5 | 0.05 | 0.48 | 0.28 | 85 | 1013.7 |
| 20260510110109 | 13 | 154 | 11.3 | 24.1 | 0.05 | 0.46 | 0.25 | 85 | 1013.8 |
| 20260510105530 | 13 | 205 | 8.0 | 24.1 | 0.05 | 0.46 | 0.25 | 85 | 1013.8 |
| 20260510105041 | 13 | 236 | 14.5 | 24.1 | 0.05 | 0.46 | 0.25 | 86 | 1013.8 |
| 20260510104529 | 13 | 219 | 11.3 | 19.3 | 0.05 | 0.46 | 0.25 | 86 | 1013.8 |
| 20260510104035 | 13 | 211 | 11.3 | 22.5 | 0.05 | 0.46 | 0.25 | 86 | 1013.8 |
| 20260510103531 | 13 | 158 | 14.5 | 22.5 | 0.03 | 0.43 | 0.23 | 86 | 1013.8 |
| 20260510103032 | 13 | 224 | 9.7 | 20.9 | 0.03 | 0.43 | 0.23 | 86 | 1013.8 |
| 20260510102606 | 13 | 201 | 12.9 | 25.7 | 0.03 | 0.43 | 0.23 | 85 | 1013.9 |
| 20260510102043 | 13 | 210 | 12.9 | 25.7 | 0.03 | 0.43 | 0.23 | 83 | 1013.9 |
| 20260510101543 | 13 | 210 | 16.1 | 22.5 | 0.03 | 0.43 | 0.23 | 81 | 1014.0 |
| 20260510101043 | 13 | 215 | 9.7 | 20.9 | 0.03 | 0.43 | 0.23 | 80 | 1013.9 |
| 20260510100530 | 14 | 210 | 9.7 | 27.4 | 0.03 | 0.43 | 0.23 | 78 | 1013.8 |
| 20260510100048 | 15 | 212 | 19.3 | 27.4 | 0.03 | 0.43 | 0.23 | 75 | 1013.7 |
| 20260510095529 | 15 | 226 | 11.3 | 22.5 | 0.00 | 0.43 | 0.23 | 74 | 1013.7 |
| 20260510095020 | 15 | 219 | 16.1 | 22.5 | 0.00 | 0.43 | 0.23 | 73 | 1013.6 |
| 20260510094539 | 15 | 179 | 8.0 | 22.5 | 0.00 | 0.43 | 0.23 | 74 | 1013.6 |
| 20260510094021 | 14 | 161 | 12.9 | 22.5 | 0.00 | 0.43 | 0.23 | 75 | 1013.7 |
| 20260510093528 | 14 | 203 | 16.1 | 25.7 | 0.00 | 0.43 | 0.23 | 76 | 1013.7 |
| 20260510093100 | 14 | 203 | 17.7 | 30.6 | 0.00 | 0.43 | 0.23 | 75 | 1013.7 |
| 20260510092520 | 14 | 217 | 11.3 | 30.6 | 0.00 | 0.43 | 0.23 | 75 | 1013.7 |
| 20260510092028 | 15 | 242 | 14.5 | 25.7 | 0.00 | 0.43 | 0.23 | 73 | 1013.6 |
| 20260510091543 | 15 | 253 | 11.3 | 27.4 | 0.00 | 0.43 | 0.23 | 74 | 1013.6 |
| 20260510091045 | 14 | 154 | 14.5 | 29.0 | 0.00 | 0.43 | 0.23 | 73 | 1013.5 |
| 20260510090545 | 15 | 179 | 12.9 | 29.0 | 0.00 | 0.43 | 0.23 | 73 | 1013.5 |
| 20260510090107 | 15 | 222 | 12.9 | 30.6 | 0.00 | 0.43 | 0.23 | 74 | 1013.5 |
| 20260510085542 | 15 | 248 | 17.7 | 30.6 | 0.00 | 0.43 | 0.23 | 73 | 1013.4 |
| 20260510085042 | 15 | 167 | 16.1 | 30.6 | 0.00 | 0.43 | 0.23 | 73 | 1013.4 |
| 20260510084523 | 15 | 155 | 17.7 | 27.4 | 0.00 | 0.43 | 0.23 | 73 | 1013.4 |
| 20260510084021 | 15 | 201 | 14.5 | 27.4 | 0.00 | 0.43 | 0.23 | 75 | 1013.3 |
| 20260510083523 | 15 | 311 | 12.9 | 27.4 | 0.00 | 0.43 | 0.23 | 79 | 1013.3 |
| 20260510083028 | 14 | 261 | 8.0 | 19.3 | 0.00 | 0.43 | 0.23 | 81 | 1013.4 |
| 20260510082540 | 14 | 211 | 8.0 | 24.1 | 0.00 | 0.43 | 0.23 | 80 | 1013.4 |
| 20260510082053 | 14 | 207 | 16.1 | 24.1 | 0.00 | 0.48 | 0.23 | 79 | 1013.5 |
| 20260510081537 | 14 | 181 | 12.9 | 24.1 | 0.00 | 0.48 | 0.23 | 79 | 1013.6 |
| 20260510081021 | 14 | 162 | 16.1 | 24.1 | 0.08 | 0.48 | 0.23 | 80 | 1013.5 |
| 20260510080543 | 14 | 192 | 3.2 | 25.7 | 0.08 | 0.48 | 0.23 | 83 | 1013.5 |
| 20260510080105 | 13 | 218 | 12.9 | 25.7 | 0.08 | 0.48 | 0.23 | 83 | 1013.4 |
| 20260510075521 | 13 | 187 | 9.7 | 20.9 | 0.08 | 0.48 | 0.23 | 85 | 1013.4 |
| 20260510075041 | 13 | 231 | 9.7 | 20.9 | 0.08 | 0.48 | 0.23 | 87 | 1013.4 |
| 20260510074546 | 12 | 166 | 12.9 | 17.7 | 0.08 | 0.48 | 0.23 | 88 | 1013.5 |
| 20260510074026 | 12 | 120 | 6.4 | 19.3 | 0.08 | 0.48 | 0.23 | 90 | 1013.5 |
| 20260510073525 | 12 | 146 | 11.3 | 19.3 | 0.08 | 0.48 | 0.23 | 91 | 1013.4 |
| 20260510073044 | 12 | 183 | 12.9 | 19.3 | 0.08 | 0.48 | 0.23 | 92 | 1013.5 |
| 20260510072530 | 11 | 231 | 12.9 | 20.9 | 0.08 | 0.48 | 0.23 | 92 | 1013.6 |
| 20260510072032 | 11 | 140 | 14.5 | 20.9 | 0.08 | 0.48 | 0.23 | 91 | 1013.6 |
| 20260510071520 | 11 | 205 | 12.9 | 20.9 | 0.10 | 0.48 | 0.23 | 91 | 1013.7 |
| 20260510071027 | 11 | 242 | 14.5 | 20.9 | 0.03 | 0.41 | 0.15 | 91 | 1013.7 |
| 20260510070554 | 11 | 211 | 8.0 | 22.5 | 0.03 | 0.41 | 0.15 | 91 | 1013.6 |
| 20260510070127 | 11 | 203 | 12.9 | 22.5 | 0.03 | 0.41 | 0.15 | 91 | 1013.5 |
| 20260510065541 | 11 | 158 | 6.4 | 19.3 | 0.03 | 0.41 | 0.15 | 92 | 1013.4 |
| 20260510065025 | 11 | 191 | 8.0 | 12.9 | 0.03 | 0.41 | 0.15 | 92 | 1013.4 |
| 20260510064541 | 11 | 99 | 8.0 | 12.9 | 0.03 | 0.41 | 0.15 | 93 | 1013.3 |
| 20260510064045 | 11 | 177 | 9.7 | 12.9 | 0.03 | 0.41 | 0.15 | 93 | 1013.4 |
| 20260510063538 | 11 | 85 | 6.4 | 12.9 | 0.03 | 0.41 | 0.15 | 93 | 1013.3 |
| 20260510063046 | 11 | 143 | 8.0 | 12.9 | 0.03 | 0.41 | 0.15 | 94 | 1013.3 |
| 20260510062539 | 11 | 198 | 4.8 | 14.5 | 0.03 | 0.41 | 0.15 | 94 | 1013.3 |
| 20260510062026 | 11 | 240 | 6.4 | 14.5 | 0.03 | 0.41 | 0.15 | 94 | 1013.3 |
| 20260510061528 | -17 | 0.0 | 0.0 | 0.00 | 0.38 | 0.13 | 1013.2 | ||
| 20260510061033 | -17 | 0.0 | 0.0 | 0.00 | 0.38 | 0.13 | 1013.1 | ||
| 20260510060540 | -17 | 0.0 | 0.0 | 0.03 | 0.38 | 0.13 | 1013.2 | ||
| 20260510060101 | -17 | 0.0 | 0.0 | 0.05 | 0.38 | 0.13 | 1013.2 | ||
| 20260510055527 | -17 | 0.0 | 0.0 | 0.05 | 0.38 | 0.13 | 1013.3 | ||
| 20260510055029 | -17 | 0.0 | 0.0 | 0.05 | 0.38 | 0.13 | 1013.3 | ||
| 20260510054519 | -17 | 0.0 | 0.0 | 0.05 | 0.38 | 0.13 | 1013.3 | ||
| 20260510054101 | -17 | 0.0 | 0.0 | 0.05 | 0.38 | 0.13 | 1013.3 | ||
| 20260510053545 | 10 | 224 | 0.0 | 0.0 | 0.08 | 0.38 | 0.13 | 93 | 1013.3 |
| 20260510053035 | 10 | 224 | 0.0 | 4.8 | 0.08 | 0.38 | 0.13 | 93 | 1013.3 |
| 20260510052523 | 10 | 224 | 1.6 | 6.4 | 0.08 | 0.38 | 0.13 | 94 | 1013.3 |
| 20260510052025 | 11 | 163 | 0.0 | 6.4 | 0.08 | 0.38 | 0.13 | 94 | 1013.2 |
| 20260510051541 | 11 | 246 | 0.0 | 4.8 | 0.10 | 0.38 | 0.13 | 93 | 1013.3 |
| 20260510051021 | 11 | 162 | 1.6 | 4.8 | 0.13 | 0.38 | 0.13 | 93 | 1013.2 |
| 20260510050522 | 11 | 196 | 3.2 | 4.8 | 0.13 | 0.38 | 0.13 | 93 | 1013.2 |
| 20260510050049 | 11 | 191 | 3.2 | 4.8 | 0.05 | 0.33 | 0.05 | 93 | 1013.2 |
| 20260510045528 | 11 | 153 | 0.0 | 6.4 | 0.05 | 0.33 | 0.05 | 93 | 1013.1 |
| 20260510045042 | 11 | 165 | 1.6 | 9.7 | 0.05 | 0.33 | 0.05 | 93 | 1013.2 |
| 20260510044537 | 11 | 249 | 1.6 | 9.7 | 0.05 | 0.33 | 0.05 | 92 | 1013.1 |
| 20260510044038 | 11 | 219 | 1.6 | 8.0 | 0.05 | 0.33 | 0.05 | 92 | 1013.2 |
| 20260510043526 | 11 | 181 | 3.2 | 12.9 | 0.05 | 0.30 | 0.05 | 92 | 1013.2 |
| 20260510043024 | 11 | 162 | 8.0 | 14.5 | 0.05 | 0.30 | 0.05 | 92 | 1013.1 |
| 20260510042525 | 11 | 224 | 6.4 | 16.1 | 0.05 | 0.30 | 0.05 | 92 | 1013.1 |
| 20260510042041 | 11 | 200 | 6.4 | 16.1 | 0.05 | 0.30 | 0.05 | 91 | 1013.2 |
| 20260510041543 | 11 | 210 | 6.4 | 9.7 | 0.03 | 0.28 | 0.03 | 91 | 1013.2 |
| 20260510041032 | 11 | 151 | 3.2 | 9.7 | 0.00 | 0.25 | 0.00 | 91 | 1013.2 |
| 20260510040520 | 11 | 169 | 1.6 | 4.8 | 0.00 | 0.25 | 0.00 | 90 | 1013.1 |
| 20260510040126 | 11 | 121 | 0.0 | 4.8 | 0.00 | 0.25 | 0.00 | 89 | 1013.1 |
| 20260510035525 | 11 | 139 | 1.6 | 4.8 | 0.00 | 0.25 | 0.00 | 89 | 1013.3 |
| 20260510035056 | 10 | 101 | 0.0 | 1.6 | 0.00 | 0.25 | 0.00 | 88 | 1013.3 |
| 20260510034523 | 10 | 96 | 0.0 | 0.0 | 0.00 | 0.25 | 0.00 | 88 | 1013.3 |
| 20260510034057 | 10 | 96 | 0.0 | 0.0 | 0.00 | 0.25 | 0.00 | 89 | 1013.4 |
| 20260510033543 | 10 | 96 | 0.0 | 1.6 | 0.00 | 0.25 | 0.00 | 88 | 1013.4 |
| 20260510033028 | 10 | 91 | 0.0 | 1.6 | 0.00 | 0.25 | 0.00 | 88 | 1013.3 |
| 20260510032537 | 10 | 100 | 0.0 | 1.6 | 0.00 | 0.25 | 0.00 | 88 | 1013.3 |
| 20260510032038 | 10 | 153 | 0.0 | 0.0 | 0.00 | 0.25 | 0.00 | 88 | 1013.4 |
| 20260510031531 | 10 | 153 | 0.0 | 0.0 | 0.00 | 0.25 | 0.00 | 87 | 1013.4 |
| 20260510031033 | 11 | 153 | 0.0 | 0.0 | 0.00 | 0.25 | 0.00 | 87 | 1013.4 |
| 20260510030522 | 11 | 154 | 0.0 | 0.0 | 0.00 | 0.25 | 0.00 | 87 | 1013.4 |
| 20260510030106 | 11 | 154 | 0.0 | 0.0 | 0.00 | 0.25 | 0.00 | 87 | 1013.4 |
| 20260510025544 | 10 | 154 | 0.0 | 0.0 | 0.00 | 0.25 | 0.00 | 88 | 1013.4 |
| 20260510025047 | 10 | 75 | 0.0 | 0.0 | 0.00 | 0.25 | 0.00 | 88 | 1013.4 |
| 20260510024536 | 10 | 75 | 0.0 | 0.0 | 0.00 | 0.25 | 0.00 | 88 | 1013.4 |
| 20260510024036 | 10 | 75 | 0.0 | 0.0 | 0.00 | 0.25 | 0.00 | 89 | 1013.5 |
| 20260510023542 | 10 | 75 | 0.0 | 0.0 | 0.00 | 0.25 | 0.00 | 89 | 1013.5 |
| 20260510023023 | 10 | 75 | 0.0 | 0.0 | 0.00 | 0.25 | 0.00 | 89 | 1013.6 |
| 20260510022536 | 10 | 75 | 0.0 | 0.0 | 0.00 | 0.25 | 0.00 | 89 | 1013.5 |
| 20260510022045 | 10 | 75 | 0.0 | 0.0 | 0.00 | 0.25 | 0.00 | 89 | 1013.6 |
| 20260510021522 | 10 | 75 | 0.0 | 0.0 | 0.00 | 0.25 | 0.00 | 89 | 1013.6 |
| 20260510021023 | 10 | 75 | 0.0 | 0.0 | 0.00 | 0.25 | 0.00 | 89 | 1013.7 |
| 20260510020531 | 10 | 75 | 0.0 | 0.0 | 0.00 | 0.25 | 0.00 | 88 | 1013.6 |
| 20260510020049 | 10 | 65 | 0.0 | 0.0 | 0.00 | 0.25 | 0.00 | 89 | 1013.7 |
| 20260510015543 | 10 | 6 | 0.0 | 0.0 | 0.00 | 0.25 | 0.00 | 89 | 1013.6 |
| 20260510015020 | 10 | 341 | 0.0 | 1.6 | 0.00 | 0.25 | 0.00 | 88 | 1013.6 |
| 20260510014520 | 10 | 8 | 0.0 | 4.8 | 0.00 | 0.25 | 0.00 | 88 | 1013.7 |
| 20260510014044 | 10 | 41 | 1.6 | 4.8 | 0.00 | 0.25 | 0.00 | 87 | 1013.6 |
| 20260510013521 | 10 | 41 | 0.0 | 0.0 | 0.00 | 0.25 | 0.00 | 86 | 1013.6 |
| 20260510013023 | 10 | 245 | 0.0 | 0.0 | 0.00 | 0.25 | 0.00 | 85 | 1013.6 |
| 20260510012549 | 11 | 245 | 0.0 | 0.0 | 0.00 | 0.25 | 0.00 | 84 | 1013.7 |
| 20260510012037 | 11 | 245 | 0.0 | 4.8 | 0.00 | 0.25 | 0.00 | 84 | 1013.7 |
| 20260510011542 | 11 | 222 | 1.6 | 6.4 | 0.00 | 0.25 | 0.00 | 84 | 1013.7 |
| 20260510011024 | 11 | 231 | 1.6 | 6.4 | 0.00 | 0.25 | 0.00 | 84 | 1013.9 |
| 20260510010520 | 11 | 251 | 1.6 | 8.0 | 0.00 | 0.25 | 0.00 | 83 | 1013.9 |
| 20260510010056 | 11 | 224 | 0.0 | 8.0 | 0.00 | 0.25 | 0.00 | 83 | 1013.9 |
| 20260510005527 | 11 | 226 | 6.4 | 11.3 | 0.00 | 0.25 | 0.00 | 82 | 1013.9 |
| 20260510005034 | 11 | 250 | 1.6 | 12.9 | 0.00 | 0.25 | 0.00 | 82 | 1013.9 |
| 20260510004521 | 11 | 217 | 6.4 | 12.9 | 0.00 | 0.25 | 0.00 | 82 | 1014.0 |
| 20260510004048 | 11 | 217 | 3.2 | 14.5 | 0.00 | 0.25 | 0.00 | 82 | 1013.9 |
| 20260510003533 | 11 | 217 | 4.8 | 14.5 | 0.00 | 0.25 | 0.00 | 82 | 1013.9 |
| 20260510003020 | 11 | 220 | 3.2 | 11.3 | 0.00 | 0.25 | 0.00 | 82 | 1014.0 |
| 20260510002523 | 11 | 177 | 3.2 | 12.9 | 0.00 | 0.25 | 0.00 | 82 | 1014.0 |
| 20260510002033 | 11 | 236 | 8.0 | 12.9 | 0.00 | 0.25 | 0.00 | 82 | 1014.1 |
| 20260510001606 | 11 | 208 | 4.8 | 14.5 | 0.00 | 0.25 | 0.00 | 83 | 1014.1 |
| 20260510001030 | 11 | 235 | 8.0 | 14.5 | 0.00 | 0.25 | 0.00 | 83 | 1014.1 |
| 20260510000546 | 11 | 211 | 1.6 | 9.7 | 0.00 | 0.25 | 0.00 | 82 | 1014.2 |
| 20260510000111 | 11 | 219 | 6.4 | 9.7 | 0.00 | 0.25 | 0.00 | 82 | 1014.2 |
| 20260509235544 | 11 | 231 | 4.8 | 8.0 | 0.00 | 0.25 | 0.00 | 82 | 1014.2 |
| 20260509235028 | 11 | 236 | 3.2 | 8.0 | 0.00 | 0.25 | 0.00 | 82 | 1014.2 |
| 20260509234539 | 11 | 239 | 4.8 | 8.0 | 0.00 | 0.25 | 0.00 | 81 | 1014.2 |
| 20260509234048 | 11 | 184 | 1.6 | 6.4 | 0.00 | 0.25 | 0.00 | 81 | 1014.2 |
| 20260509233531 | 11 | 158 | 1.6 | 6.4 | 0.00 | 0.25 | 0.00 | 81 | 1014.1 |
| 20260509233023 | 11 | 166 | 1.6 | 6.4 | 0.00 | 0.25 | 0.00 | 81 | 1014.2 |
| 20260509232554 | 11 | 204 | 1.6 | 6.4 | 0.00 | 0.25 | 0.00 | 81 | 1014.1 |
| 20260509232027 | 11 | 177 | 1.6 | 6.4 | 0.00 | 0.25 | 0.00 | 80 | 1014.2 |
| 20260509231533 | 11 | 190 | 1.6 | 6.4 | 0.00 | 0.25 | 0.00 | 80 | 1014.2 |
| 20260509231029 | 11 | 169 | 0.0 | 8.0 | 0.00 | 0.25 | 0.00 | 80 | 1014.2 |
| 20260509230543 | 11 | 210 | 3.2 | 9.7 | 0.00 | 0.25 | 0.00 | 80 | 1014.1 |
| 20260509230045 | 11 | 152 | 4.8 | 9.7 | 0.00 | 0.25 | 0.00 | 80 | 1014.1 |
| 20260509225537 | 11 | 187 | 3.2 | 8.0 | 0.00 | 0.25 | 0.00 | 81 | 1014.1 |
| 20260509225022 | 11 | 214 | 3.2 | 8.0 | 0.00 | 0.25 | 0.00 | 81 | 1014.1 |
| 20260509224603 | 11 | 151 | 1.6 | 8.0 | 0.00 | 0.25 | 0.00 | 81 | 1014.1 |
| 20260509224043 | 12 | 224 | 1.6 | 6.4 | 0.00 | 0.25 | 0.00 | 81 | 1014.1 |
| 20260509223532 | 12 | 212 | 0.0 | 9.7 | 0.00 | 0.25 | 0.00 | 81 | 1014.1 |
| 20260509223023 | 12 | 206 | 0.0 | 9.7 | 0.00 | 0.25 | 0.00 | 80 | 1014.0 |
| 20260509222527 | 12 | 205 | 1.6 | 9.7 | 0.00 | 0.25 | 0.00 | 80 | 1014.0 |
| 20260509222029 | 12 | 249 | 3.2 | 9.7 | 0.00 | 0.25 | 0.00 | 80 | 1014.0 |
| 20260509221528 | 12 | 129 | 4.8 | 12.9 | 0.00 | 0.25 | 0.00 | 80 | 1013.9 |
| 20260509221057 | 12 | 113 | 3.2 | 12.9 | 0.00 | 0.25 | 0.00 | 80 | 1013.8 |
| 20260509220521 | 12 | 174 | 3.2 | 11.3 | 0.00 | 0.25 | 0.00 | 80 | 1013.8 |
| 20260509220107 | 12 | 161 | 3.2 | 12.9 | 0.00 | 0.25 | 0.00 | 79 | 1013.8 |
| 20260509215547 | 12 | 236 | 4.8 | 9.7 | 0.00 | 0.25 | 0.25 | 79 | 1013.7 |
| 20260509215025 | 12 | 177 | 1.6 | 11.3 | 0.00 | 0.25 | 0.25 | 79 | 1013.7 |
| 20260509214538 | 12 | 214 | 4.8 | 11.3 | 0.00 | 0.25 | 0.25 | 79 | 1013.6 |
| 20260509214047 | 12 | 204 | 4.8 | 11.3 | 0.00 | 0.25 | 0.25 | 79 | 1013.6 |
| 20260509213529 | 12 | 174 | 6.4 | 16.1 | 0.00 | 0.25 | 0.25 | 80 | 1013.5 |
| 20260509213037 | 12 | 210 | 6.4 | 16.1 | 0.00 | 0.25 | 0.25 | 81 | 1013.5 |
| 20260509212543 | 12 | 167 | 3.2 | 11.3 | 0.00 | 0.25 | 0.25 | 82 | 1013.4 |
| 20260509212022 | 12 | 207 | 3.2 | 6.4 | 0.00 | 0.25 | 0.25 | 82 | 1013.3 |
| 20260509211545 | 12 | 191 | 0.0 | 9.7 | 0.00 | 0.25 | 0.25 | 83 | 1013.3 |